createdAt,value
2018-02-10T00:01:40.215Z,78.90
2018-02-10T00:04:08.463Z,81.07
2018-02-10T00:06:35.959Z,75.50
2018-02-10T00:09:03.439Z,68.93
2018-02-10T00:11:30.934Z,78.77
2018-02-10T00:13:58.414Z,77.23
2018-02-10T00:16:25.915Z,85.87
2018-02-10T00:18:53.415Z,80.03
2018-02-10T00:21:20.899Z,74.20
2018-02-10T00:23:49.164Z,77.80
2018-02-10T00:26:16.643Z,78.43
2018-02-10T00:28:44.138Z,78.90
2018-02-10T00:31:11.643Z,71.70
2018-02-10T00:33:39.135Z,74.47
2018-02-10T00:36:06.615Z,81.90
2018-02-10T00:38:34.110Z,70.57
2018-02-10T00:41:02.355Z,79.57
2018-02-10T00:43:29.863Z,72.60
2018-02-10T00:45:58.104Z,71.97
2018-02-10T00:48:25.604Z,68.90
2018-02-10T00:50:53.083Z,70.10
2018-02-10T00:53:20.582Z,75.27
2018-02-10T00:55:48.059Z,79.13
2018-02-10T00:58:15.558Z,68.77
2018-02-10T01:00:43.045Z,73.60
2018-02-10T01:03:10.547Z,79.87
2018-02-10T01:05:38.786Z,72.70
2018-02-10T01:08:06.287Z,74.07
2018-02-10T01:10:33.766Z,73.47
2018-02-10T01:13:02.035Z,80.73
2018-02-10T01:15:29.518Z,72.10
2018-02-10T01:17:57.023Z,75.13
2018-02-10T01:20:24.502Z,75.50
2018-02-10T01:22:52.003Z,69.57
2018-02-10T01:25:19.482Z,75.70
2018-02-10T01:27:46.982Z,72.03
2018-02-10T01:30:15.249Z,79.10
2018-02-10T01:32:42.736Z,71.20
2018-02-10T01:35:11.000Z,70.70
2018-02-10T01:37:38.483Z,74.53
2018-02-10T01:40:05.978Z,63.40
2018-02-10T01:42:34.218Z,66.67
2018-02-10T01:45:01.714Z,72.13
2018-02-10T01:47:29.191Z,69.67
2018-02-10T01:53:01.803Z,77.57
2018-02-10T01:55:29.279Z,80.37
2018-02-10T01:57:56.770Z,75.37
2018-02-10T02:00:25.006Z,71.53
2018-02-10T02:02:52.479Z,69.20
2018-02-10T02:05:19.970Z,74.03
2018-02-10T02:07:47.447Z,82.50
2018-02-10T02:10:14.942Z,82.43
2018-02-10T02:12:42.419Z,80.17
2018-02-10T02:15:09.911Z,86.80
2018-02-10T02:17:37.410Z,83.83
2018-02-10T02:20:04.902Z,74.33
2018-02-10T02:22:33.142Z,84.80
2018-02-10T02:25:00.638Z,69.00
2018-02-10T02:27:28.118Z,78.53
2018-02-10T02:29:55.618Z,63.50
2018-02-10T02:32:23.860Z,77.77
2018-02-10T02:34:51.355Z,79.33
2018-02-10T02:37:18.892Z,73.83
2018-02-10T02:39:46.346Z,74.73
2018-02-10T02:42:16.767Z,79.23
2018-02-10T02:44:44.262Z,75.53
2018-02-10T02:47:11.744Z,75.53
2018-02-10T02:49:39.239Z,70.13
2018-02-10T02:52:06.713Z,76.83
2018-02-10T02:54:34.206Z,69.80
2018-02-10T02:57:01.687Z,69.47
2018-02-10T02:59:29.183Z,71.53
2018-02-10T03:01:57.427Z,72.97
2018-02-10T03:04:25.687Z,75.37
2018-02-10T03:06:53.157Z,75.80
2018-02-10T03:09:20.649Z,69.47
2018-02-10T03:11:48.894Z,66.20
2018-02-10T03:14:16.387Z,77.93
2018-02-10T03:16:43.864Z,69.47
2018-02-10T03:19:11.363Z,74.70
2018-02-10T03:21:38.838Z,64.50
2018-02-10T03:24:06.334Z,66.37
2018-02-10T03:26:33.814Z,74.60
2018-02-10T03:29:01.306Z,77.60
2018-02-10T03:31:28.788Z,81.20
2018-02-10T03:33:57.059Z,80.00
2018-02-10T03:36:24.531Z,67.73
2018-02-10T03:38:52.031Z,69.13
2018-02-10T03:41:20.280Z,74.03
2018-02-10T03:43:47.773Z,90.90
2018-02-10T03:46:16.023Z,71.60
2018-02-10T03:48:43.515Z,75.57
2018-02-10T03:51:10.990Z,73.47
2018-02-10T03:53:38.495Z,80.07
2018-02-10T03:56:05.970Z,72.13
2018-02-10T03:58:33.467Z,69.37
2018-02-10T04:01:00.947Z,85.90
2018-02-10T04:03:28.450Z,68.73
2018-02-10T04:05:55.927Z,78.70
2018-02-10T04:08:24.191Z,86.63
2018-02-10T04:10:51.662Z,74.20
2018-02-10T04:13:19.138Z,77.90
2018-02-10T04:15:46.638Z,74.93
2018-02-10T04:18:14.888Z,87.80
2018-02-10T04:20:42.398Z,67.40
2018-02-10T04:23:09.875Z,70.60
2018-02-10T04:25:37.370Z,70.43
2018-02-10T04:28:04.846Z,74.60
2018-02-10T04:30:32.343Z,71.53
2018-02-10T04:32:59.818Z,79.60
2018-02-10T04:35:27.317Z,79.33
2018-02-10T04:37:55.559Z,72.33
2018-02-10T04:40:23.060Z,68.80
2018-02-10T04:42:51.306Z,80.90
2018-02-10T04:45:18.799Z,79.60
2018-02-10T04:47:46.328Z,80.77
2018-02-10T04:50:14.595Z,85.60
2018-02-10T04:52:42.842Z,87.67
2018-02-10T04:55:10.342Z,72.77
2018-02-10T04:57:38.588Z,83.50
2018-02-10T05:00:06.084Z,75.87
2018-02-10T05:02:33.559Z,88.73
2018-02-10T05:05:01.830Z,83.30
2018-02-10T05:07:29.307Z,78.60
2018-02-10T05:09:56.802Z,83.57
2018-02-10T05:12:25.047Z,80.07
2018-02-10T05:14:52.542Z,76.17
2018-02-10T05:17:20.018Z,83.93
2018-02-10T05:19:48.278Z,77.27
2018-02-10T05:22:15.755Z,69.03
2018-02-10T05:24:43.247Z,66.30
2018-02-10T05:27:11.494Z,82.47
2018-02-10T05:29:38.990Z,71.00
2018-02-10T05:32:06.463Z,66.80
2018-02-10T05:34:33.959Z,72.90
2018-02-10T05:37:01.435Z,80.23
2018-02-10T05:39:28.931Z,82.97
2018-02-10T05:41:56.407Z,74.73
2018-02-10T05:44:23.939Z,81.70
2018-02-10T05:46:51.398Z,79.30
2018-02-10T05:49:19.664Z,81.13
2018-02-10T05:51:47.148Z,84.00
2018-02-10T05:54:15.424Z,79.00
2018-02-10T05:56:42.900Z,80.13
2018-02-10T05:59:10.408Z,88.13
2018-02-10T06:01:37.882Z,85.07
2018-02-10T06:04:05.383Z,73.90
2018-02-10T06:06:32.868Z,70.13
2018-02-10T06:09:00.366Z,78.67
2018-02-10T06:11:28.604Z,80.97
2018-02-10T06:13:56.100Z,82.53
2018-02-10T06:16:23.578Z,86.80
2018-02-10T06:18:51.099Z,70.67
2018-02-10T06:21:18.575Z,72.13
2018-02-10T06:23:46.053Z,74.00
2018-02-10T06:26:13.544Z,72.87
2018-02-10T06:28:41.030Z,76.47
2018-02-10T06:31:08.524Z,75.03
2018-02-10T06:33:35.998Z,77.20
2018-02-10T06:36:03.494Z,79.67
2018-02-10T06:38:31.739Z,73.30
2018-02-10T06:41:00.006Z,80.03
2018-02-10T06:43:27.903Z,88.10
2018-02-10T06:45:55.398Z,89.53
2018-02-10T06:48:22.878Z,74.27
2018-02-10T06:50:50.369Z,81.60
2018-02-10T06:53:17.850Z,83.87
2018-02-10T06:55:45.354Z,80.93
2018-02-10T06:58:13.630Z,70.03
2018-02-10T07:00:41.115Z,80.37
2018-02-10T07:03:09.359Z,75.87
2018-02-10T07:05:36.858Z,80.37
2018-02-10T07:08:04.336Z,69.50
2018-02-10T07:10:32.603Z,78.37
2018-02-10T07:13:00.092Z,74.07
2018-02-10T07:15:28.347Z,62.17
2018-02-10T07:17:55.827Z,69.17
2018-02-10T07:20:23.322Z,73.00
2018-02-10T07:22:50.799Z,65.70
2018-02-10T07:25:19.059Z,73.40
2018-02-10T07:27:46.535Z,66.13
2018-02-10T07:30:14.035Z,73.90
2018-02-10T07:32:41.515Z,68.73
2018-02-10T07:35:09.018Z,73.10
2018-02-10T07:37:36.499Z,73.90
2018-02-10T07:40:04.015Z,61.77
2018-02-10T07:42:32.266Z,68.60
2018-02-10T07:44:59.787Z,68.20
2018-02-10T07:47:27.263Z,62.10
2018-02-10T07:49:54.765Z,63.07
2018-02-10T07:52:22.238Z,62.30
2018-02-10T07:54:49.771Z,63.07
2018-02-10T07:57:17.296Z,63.60
2018-02-10T07:59:44.759Z,65.73
2018-02-10T08:02:12.239Z,63.63
2018-02-10T08:04:39.899Z,61.23
2018-02-10T08:07:07.375Z,61.87
2018-02-10T08:09:34.871Z,69.83
2018-02-10T08:12:03.124Z,66.13
2018-02-10T08:14:30.627Z,64.77
2018-02-10T08:16:58.894Z,66.13
2018-02-10T08:19:26.378Z,58.30
2018-02-10T08:21:54.693Z,60.37
2018-02-10T08:24:22.190Z,66.13
2018-02-10T08:26:49.691Z,55.63
2018-02-10T08:29:17.162Z,56.10
2018-02-10T08:31:44.655Z,55.20
2018-02-10T08:34:12.898Z,55.07
2018-02-10T08:36:40.438Z,65.57
2018-02-10T08:39:07.919Z,59.93
2018-02-10T08:41:35.407Z,59.40
2018-02-10T08:44:02.882Z,58.77
2018-02-10T08:46:30.426Z,49.77
2018-02-10T08:48:57.923Z,56.73
2018-02-10T08:51:25.427Z,52.83
2018-02-10T08:53:52.975Z,44.53
2018-02-10T08:56:20.466Z,54.80
2018-02-10T08:58:47.939Z,47.50
2018-02-10T09:01:15.449Z,47.50
2018-02-10T09:03:42.963Z,54.20
2018-02-10T09:06:10.469Z,46.30
2018-02-10T09:08:37.960Z,46.57
2018-02-10T09:11:05.454Z,48.83
2018-02-10T09:13:32.939Z,41.87
2018-02-10T09:16:00.431Z,46.23
2018-02-10T09:18:28.671Z,44.50
2018-02-10T09:20:56.167Z,49.57
2018-02-10T09:23:23.765Z,46.37
2018-02-10T09:25:52.036Z,49.20
2018-02-10T09:28:19.523Z,47.20
2018-02-10T09:30:47.811Z,38.63
2018-02-10T09:33:16.094Z,48.93
2018-02-10T09:35:43.591Z,42.90
2018-02-10T09:38:11.072Z,43.30
2018-02-10T09:40:38.575Z,47.40
2018-02-10T09:43:06.055Z,41.60
2018-02-10T09:45:33.580Z,44.10
2018-02-10T09:48:01.072Z,40.53
2018-02-10T09:50:28.579Z,40.27
2018-02-10T09:52:56.060Z,44.97
2018-02-10T09:55:24.325Z,39.67
2018-02-10T09:57:51.802Z,42.97
2018-02-10T10:00:19.306Z,43.40
2018-02-10T10:02:46.793Z,38.93
2018-02-10T10:05:14.311Z,39.23
2018-02-10T10:07:41.785Z,36.73
2018-02-10T10:10:09.294Z,44.73
2018-02-10T10:12:36.790Z,42.97
2018-02-10T10:15:04.286Z,39.87
2018-02-10T10:17:31.779Z,42.27
2018-02-10T10:20:00.044Z,43.10
2018-02-10T10:22:27.553Z,34.63
2018-02-10T10:24:55.798Z,40.50
2018-02-10T10:27:23.307Z,38.27
2018-02-10T10:29:51.555Z,35.90
2018-02-10T10:32:19.054Z,40.07
2018-02-10T10:34:47.295Z,38.33
2018-02-10T10:37:14.791Z,38.77
2018-02-10T10:39:42.272Z,40.50
2018-02-10T10:42:09.770Z,35.67
2018-02-10T10:44:37.249Z,40.90
2018-02-10T10:47:04.755Z,38.93
2018-02-10T10:49:32.236Z,37.90
2018-02-10T10:51:59.739Z,38.63
2018-02-10T10:54:27.983Z,37.67
2018-02-10T10:56:55.491Z,35.63
2018-02-10T10:59:23.739Z,37.70
2018-02-10T11:01:51.252Z,33.03
2018-02-10T11:04:19.524Z,39.43
2018-02-10T11:06:47.008Z,41.93
2018-02-10T11:09:15.258Z,34.13
2018-02-10T11:11:42.759Z,44.17
2018-02-10T11:14:10.239Z,38.47
2018-02-10T11:16:38.537Z,38.13
2018-02-10T11:19:06.023Z,34.57
2018-02-10T11:21:33.534Z,35.30
2018-02-10T11:24:01.043Z,36.60
2018-02-10T11:26:29.301Z,36.50
2018-02-10T11:28:56.779Z,43.53
2018-02-10T11:31:24.300Z,41.37
2018-02-10T11:33:51.779Z,39.37
2018-02-10T11:36:19.271Z,35.17
2018-02-10T11:38:46.766Z,38.03
2018-02-10T11:41:15.046Z,41.03
2018-02-10T11:43:42.532Z,35.60
2018-02-10T11:46:10.790Z,36.20
2018-02-10T11:48:38.267Z,39.43
2018-02-10T11:51:05.883Z,39.20
2018-02-10T11:53:33.372Z,34.13
2018-02-10T11:56:00.872Z,38.63
2018-02-10T11:58:28.350Z,37.73
2018-02-10T12:00:55.856Z,38.50
2018-02-10T12:03:24.114Z,31.73
2018-02-10T12:05:51.616Z,42.13
2018-02-10T12:08:19.882Z,40.60
2018-02-10T12:10:47.381Z,38.43
2018-02-10T12:13:15.575Z,40.63
2018-02-10T12:15:43.067Z,43.43
2018-02-10T12:18:10.546Z,35.77
2018-02-10T12:20:38.088Z,33.93
2018-02-10T12:23:06.332Z,31.23
2018-02-10T12:25:33.856Z,24.67
2018-02-10T12:28:01.419Z,24.33
2018-02-10T12:30:28.912Z,21.80
2018-02-10T12:32:56.418Z,26.50
2018-02-10T12:35:23.899Z,27.53
2018-02-10T12:37:52.164Z,21.17
2018-02-10T12:40:19.634Z,25.60
2018-02-10T12:42:47.131Z,28.77
2018-02-10T12:45:15.375Z,28.97
2018-02-10T12:47:48.526Z,32.10
2018-02-10T12:50:16.042Z,27.37
2018-02-10T12:52:43.539Z,28.63
2018-02-10T12:55:11.109Z,30.97
2018-02-10T12:57:39.408Z,29.30
2018-02-10T13:00:06.891Z,30.63
2018-02-10T13:02:34.400Z,32.67
2018-02-10T13:05:01.874Z,32.83
2018-02-10T13:07:29.371Z,26.67
2018-02-10T13:09:56.856Z,33.70
2018-02-10T13:12:24.356Z,31.10
2018-02-10T13:14:52.592Z,29.60
2018-02-10T13:17:20.090Z,29.87
2018-02-10T13:19:47.576Z,26.43
2018-02-10T13:22:15.873Z,24.83
2018-02-10T13:24:43.350Z,27.27
2018-02-10T13:27:10.842Z,26.70
2018-02-10T13:29:38.320Z,23.63
2018-02-10T13:32:05.824Z,25.47
2018-02-10T13:34:33.320Z,25.63
2018-02-10T13:37:00.824Z,25.73
2018-02-10T13:39:28.299Z,47.37
2018-02-10T13:41:55.799Z,21.60
2018-02-10T13:44:23.314Z,22.30
2018-02-10T13:46:50.796Z,24.57
2018-02-10T13:49:18.277Z,21.00
2018-02-10T13:51:45.774Z,22.07
2018-02-10T13:54:13.274Z,22.63
2018-02-10T13:56:41.534Z,23.20
2018-02-10T13:59:09.018Z,21.37
2018-02-10T14:01:36.522Z,26.30
2018-02-10T14:04:04.007Z,24.67
2018-02-10T14:06:31.502Z,20.70
2018-02-10T14:08:58.978Z,22.60
2018-02-10T14:11:26.474Z,20.00
2018-02-10T14:13:53.961Z,21.50
2018-02-10T14:16:21.462Z,21.20
2018-02-10T14:18:48.939Z,24.07
2018-02-10T14:21:16.435Z,26.50
2018-02-10T14:23:43.910Z,22.00
2018-02-10T14:26:11.411Z,27.87
2018-02-10T14:28:38.896Z,22.80
2018-02-10T14:31:06.416Z,23.57
2018-02-10T14:33:33.891Z,25.23
2018-02-10T14:36:01.384Z,24.77
2018-02-10T14:38:29.651Z,24.80
2018-02-10T14:40:57.127Z,24.30
2018-02-10T14:43:24.626Z,27.10
2018-02-10T14:45:52.107Z,24.27
2018-02-10T14:48:19.615Z,23.70
2018-02-10T14:50:47.098Z,23.43
2018-02-10T14:53:14.608Z,23.10
2018-02-10T14:55:42.090Z,19.43
2018-02-10T14:58:09.587Z,22.23
2018-02-10T15:00:37.058Z,19.83
2018-02-10T15:03:04.563Z,24.67
2018-02-10T15:05:32.820Z,26.00
2018-02-10T15:08:00.326Z,24.20
2018-02-10T15:10:27.806Z,24.03
2018-02-10T15:12:55.315Z,23.10
2018-02-10T15:15:22.787Z,29.70
2018-02-10T15:17:50.282Z,22.23
2018-02-10T15:20:17.831Z,27.07
2018-02-10T15:22:45.411Z,20.97
2018-02-10T15:25:12.983Z,22.70
2018-02-10T15:27:40.479Z,24.20
2018-02-10T15:30:19.746Z,31.57
2018-02-10T15:32:59.904Z,22.83
2018-02-10T15:35:28.151Z,22.83
2018-02-10T15:37:55.644Z,24.40
2018-02-10T15:40:23.119Z,23.70
2018-02-10T15:42:50.620Z,23.20
2018-02-10T15:45:18.103Z,21.43
2018-02-10T15:47:45.605Z,21.83
2018-02-10T15:50:13.082Z,22.13
2018-02-10T15:52:40.580Z,20.40
2018-02-10T15:55:09.351Z,26.50
2018-02-10T15:57:36.445Z,26.20
2018-02-10T16:00:04.706Z,23.73
2018-02-10T16:02:32.207Z,20.03
2018-02-10T16:05:00.455Z,23.10
2018-02-10T16:07:27.968Z,20.27
2018-02-10T16:09:55.442Z,17.53
2018-02-10T16:12:22.951Z,27.20
2018-02-10T16:14:50.423Z,20.87
2018-02-10T16:17:17.931Z,26.10
2018-02-10T16:19:46.178Z,19.90
2018-02-10T16:22:13.670Z,23.63
2018-02-10T16:24:41.150Z,22.20
2018-02-10T16:27:08.658Z,25.23
2018-02-10T16:29:36.138Z,23.13
2018-02-10T16:32:03.632Z,20.97
2018-02-10T16:34:31.111Z,24.30
2018-02-10T16:36:58.607Z,23.00
2018-02-10T16:39:26.086Z,27.00
2018-02-10T16:41:54.374Z,32.23
2018-02-10T16:44:21.844Z,28.50
2018-02-10T16:46:50.107Z,23.03
2018-02-10T16:49:17.584Z,23.60
2018-02-10T16:51:45.099Z,26.60
2018-02-10T16:57:12.036Z,24.77
2018-02-10T16:59:39.511Z,24.37
2018-02-10T17:02:07.002Z,24.30
2018-02-10T17:04:35.246Z,24.97
2018-02-10T17:07:02.739Z,23.23
2018-02-10T17:09:30.219Z,26.77
2018-02-10T17:11:57.718Z,23.87
2018-02-10T17:14:25.196Z,24.63
2018-02-10T17:16:52.692Z,29.53
2018-02-10T17:19:20.182Z,24.80
2018-02-10T17:21:47.668Z,26.47
2018-02-10T17:24:15.159Z,25.17
2018-02-10T17:26:43.402Z,27.40
2018-02-10T17:29:10.907Z,23.40
2018-02-10T17:31:39.155Z,25.87
2018-02-10T17:34:06.650Z,27.60
2018-02-10T17:36:34.126Z,22.77
2018-02-10T17:39:01.624Z,27.03
2018-02-10T17:41:29.094Z,26.90
2018-02-10T17:43:56.631Z,24.30
2018-02-10T17:46:24.087Z,27.43
2018-02-10T17:48:51.595Z,27.37
2018-02-10T17:51:19.839Z,23.63
2018-02-10T17:53:47.330Z,26.03
2018-02-10T17:56:33.952Z,25.53
2018-02-10T17:59:01.448Z,25.37
2018-02-10T18:01:29.703Z,25.80
2018-02-10T18:03:57.199Z,23.60
2018-02-10T18:06:25.443Z,26.90
2018-02-10T18:08:52.942Z,24.53
2018-02-10T18:11:21.066Z,27.80
2018-02-10T18:13:48.657Z,27.60
2018-02-10T18:16:16.968Z,23.70
2018-02-10T18:18:44.458Z,24.33
2018-02-10T18:21:11.935Z,27.13
2018-02-10T18:23:40.243Z,23.33
2018-02-10T18:26:07.730Z,24.63
2018-02-10T18:28:35.223Z,26.10
2018-02-10T18:31:02.703Z,26.07
2018-02-10T18:33:30.198Z,29.00
2018-02-10T18:35:57.679Z,25.90
2018-02-10T18:38:25.199Z,22.13
2018-02-10T18:40:52.675Z,25.93
2018-02-10T18:43:22.091Z,26.10
2018-02-10T18:45:49.571Z,26.97
2018-02-10T18:48:17.067Z,25.77
2018-02-10T18:50:45.314Z,36.63
2018-02-10T18:53:12.826Z,31.40
2018-02-10T18:55:41.075Z,30.77
2018-02-10T18:58:08.575Z,28.17
2018-02-10T19:00:36.055Z,27.80
2018-02-10T19:03:04.319Z,27.63
2018-02-10T19:05:31.796Z,23.43
2018-02-10T19:07:59.294Z,25.93
2018-02-10T19:10:27.547Z,26.80
2018-02-10T19:12:55.044Z,28.53
2018-02-10T19:15:23.295Z,32.53
2018-02-10T19:17:50.791Z,31.97
2018-02-10T19:20:18.291Z,29.33
2018-02-10T19:22:45.791Z,29.23
2018-02-10T19:25:13.268Z,33.83
2018-02-10T19:27:40.778Z,30.20
2018-02-10T19:30:08.253Z,29.33
2018-02-10T19:32:36.516Z,31.17
2018-02-10T19:35:03.994Z,34.67
2018-02-10T19:37:31.497Z,32.43
2018-02-10T19:39:59.926Z,27.93
2018-02-10T19:42:27.402Z,32.27
2018-02-10T19:44:54.920Z,29.93
2018-02-10T19:47:23.159Z,32.63
2018-02-10T19:49:50.662Z,35.27
2018-02-10T19:52:18.139Z,35.23
2018-02-10T19:54:46.407Z,32.73
2018-02-10T19:57:13.896Z,38.50
2018-02-10T19:59:42.167Z,44.17
2018-02-10T20:02:09.647Z,32.07
2018-02-10T20:04:37.147Z,33.60
2018-02-10T20:07:04.630Z,32.43
2018-02-10T20:09:32.126Z,33.80
2018-02-10T20:11:59.602Z,33.07
2018-02-10T20:14:27.098Z,37.60
2018-02-10T20:16:54.619Z,41.60
2018-02-10T20:19:22.139Z,36.07
2018-02-10T20:21:49.616Z,42.20
2018-02-10T20:24:17.151Z,33.83
2018-02-10T20:26:44.634Z,37.07
2018-02-10T20:29:12.152Z,41.33
2018-02-10T20:31:39.644Z,35.63
2018-02-10T20:34:07.139Z,39.27
2018-02-10T20:36:34.619Z,40.17
2018-02-10T20:39:02.119Z,36.60
2018-02-10T20:41:30.367Z,36.93
2018-02-10T20:43:57.870Z,34.90
2018-02-10T20:46:26.119Z,40.23
2018-02-10T20:48:53.614Z,39.80
2018-02-10T20:51:21.091Z,36.60
2018-02-10T20:53:48.593Z,34.80
2018-02-10T20:56:16.127Z,37.43
2018-02-10T20:58:43.633Z,39.00
2018-02-10T21:01:11.149Z,39.90
2018-02-10T21:03:38.652Z,40.97
2018-02-10T21:06:06.903Z,36.53
2018-02-10T21:08:34.402Z,38.17
2018-02-10T21:11:02.648Z,39.33
2018-02-10T21:13:30.142Z,41.90
2018-02-10T21:15:57.625Z,39.83
2018-02-10T21:18:25.124Z,37.17
2018-02-10T21:20:52.598Z,39.93
2018-02-10T21:23:20.112Z,40.90
2018-02-10T21:25:47.598Z,39.57
2018-02-10T21:28:15.102Z,43.47
2018-02-10T21:30:42.599Z,41.90
2018-02-10T21:33:10.111Z,41.10
2018-02-10T21:35:37.592Z,40.37
2018-02-10T21:38:05.878Z,42.00
2018-02-10T21:40:33.371Z,49.80
2018-02-10T21:43:00.859Z,36.87
2018-02-10T21:45:28.354Z,36.60
2018-02-10T21:47:55.835Z,41.17
2018-02-10T21:50:23.334Z,42.87
2018-02-10T21:52:51.581Z,40.53
2018-02-10T21:55:19.100Z,40.17
2018-02-10T21:57:47.342Z,37.27
2018-02-10T22:00:14.838Z,42.00
2018-02-10T22:02:42.321Z,43.97
2018-02-10T22:05:10.963Z,41.10
2018-02-10T22:07:38.442Z,41.07
2018-02-10T22:10:05.935Z,44.90
2018-02-10T22:12:33.410Z,37.40
2018-02-10T22:15:00.913Z,40.60
2018-02-10T22:17:28.391Z,39.03
2018-02-10T22:19:55.886Z,38.30
2018-02-10T22:22:23.381Z,36.03
2018-02-10T22:24:50.880Z,41.43
2018-02-10T22:27:19.123Z,36.87
2018-02-10T22:29:46.614Z,41.10
2018-02-10T22:32:14.090Z,40.53
2018-02-10T22:34:41.592Z,38.53
2018-02-10T22:37:09.078Z,42.17
2018-02-10T22:39:36.578Z,41.13
2018-02-10T22:42:04.055Z,31.13
2018-02-10T22:44:31.555Z,36.83
2018-02-10T22:46:59.799Z,32.40
2018-02-10T22:49:27.305Z,32.63
2018-02-10T22:51:54.786Z,26.90
2018-02-10T22:54:23.051Z,36.00
2018-02-10T22:56:50.531Z,30.37
2018-02-10T22:59:18.027Z,31.93
2018-02-10T23:01:45.507Z,33.63
2018-02-10T23:04:12.998Z,34.97
2018-02-10T23:06:40.475Z,33.77
2018-02-10T23:09:07.970Z,29.00
2018-02-10T23:11:35.459Z,30.90
2018-02-10T23:14:03.731Z,34.07
2018-02-10T23:16:31.206Z,32.33
2018-02-10T23:18:58.706Z,30.63
2018-02-10T23:21:26.186Z,24.13
2018-02-10T23:23:53.678Z,27.60
2018-02-10T23:26:21.156Z,22.43
2018-02-10T23:28:48.655Z,22.63
2018-02-10T23:31:16.130Z,21.23
2018-02-10T23:33:44.401Z,22.67
2018-02-10T23:36:11.874Z,21.80
2018-02-10T23:38:39.366Z,17.57
2018-02-10T23:41:07.610Z,18.87
2018-02-10T23:43:35.090Z,18.17
2018-02-10T23:46:02.591Z,18.03
2018-02-10T23:48:30.830Z,14.13
2018-02-10T23:50:58.347Z,16.07
2018-02-10T23:53:26.595Z,18.53
2018-02-10T23:55:54.090Z,15.00
2018-02-10T23:58:21.562Z,14.57
